sensor_id;sensor_type;location;lat;lon;timestamp;P1;durP1;ratioP1;P2;durP2;ratioP2
21733;SDS011;11029;47.820;10.534;2022-12-07T11:09:36;1.88;;;1.40;;
21733;SDS011;11029;47.820;10.534;2022-12-07T11:21:30;2.17;;;1.60;;
21733;SDS011;11029;47.820;10.534;2022-12-07T11:24:32;1.50;;;1.40;;
21733;SDS011;11029;47.820;10.534;2022-12-07T11:27:21;3.85;;;1.50;;
21733;SDS011;11029;47.820;10.534;2022-12-07T11:30:02;2.53;;;1.40;;
21733;SDS011;11029;47.820;10.534;2022-12-07T11:32:57;1.60;;;1.45;;
21733;SDS011;11029;47.820;10.534;2022-12-07T11:38:41;2.55;;;1.50;;
21733;SDS011;11029;47.820;10.534;2022-12-07T11:41:14;3.33;;;1.33;;
21733;SDS011;11029;47.820;10.534;2022-12-07T11:49:45;2.88;;;1.40;;
21733;SDS011;11029;47.820;10.534;2022-12-07T11:52:27;1.83;;;1.45;;
21733;SDS011;11029;47.820;10.534;2022-12-07T11:55:01;2.53;;;1.73;;
21733;SDS011;11029;47.820;10.534;2022-12-07T11:57:34;1.83;;;1.50;;
21733;SDS011;11029;47.820;10.534;2022-12-07T12:00:08;2.20;;;1.50;;
21733;SDS011;11029;47.820;10.534;2022-12-07T12:02:46;2.60;;;1.60;;
21733;SDS011;11029;47.820;10.534;2022-12-07T12:05:19;1.90;;;1.52;;
21733;SDS011;11029;47.820;10.534;2022-12-07T12:07:51;4.38;;;1.52;;
21733;SDS011;11029;47.820;10.534;2022-12-07T12:17:03;3.22;;;1.60;;
21733;SDS011;11029;47.820;10.534;2022-12-07T12:22:46;2.50;;;1.63;;
21733;SDS011;11029;47.820;10.534;2022-12-07T12:25:35;1.60;;;1.40;;
21733;SDS011;11029;47.820;10.534;2022-12-07T12:28:06;1.65;;;1.55;;
21733;SDS011;11029;47.820;10.534;2022-12-07T12:33:44;4.60;;;1.50;;
21733;SDS011;11029;47.820;10.534;2022-12-07T12:38:49;2.10;;;1.80;;
21733;SDS011;11029;47.820;10.534;2022-12-07T12:44:02;2.70;;;1.80;;
21733;SDS011;11029;47.820;10.534;2022-12-07T12:51:49;3.03;;;1.45;;
21733;SDS011;11029;47.820;10.534;2022-12-07T12:59:36;1.52;;;1.42;;
21733;SDS011;11029;47.820;10.534;2022-12-07T13:02:29;1.77;;;1.40;;
21733;SDS011;11029;47.820;10.534;2022-12-07T13:05:01;2.17;;;1.38;;
21733;SDS011;11029;47.820;10.534;2022-12-07T13:55:00;1.98;;;1.50;;
21733;SDS011;11029;47.820;10.534;2022-12-07T13:57:28;4.88;;;1.83;;
21733;SDS011;11029;47.820;10.534;2022-12-07T13:59:57;2.25;;;1.67;;
21733;SDS011;11029;47.820;10.534;2022-12-07T14:02:31;1.67;;;1.50;;
21733;SDS011;11029;47.820;10.534;2022-12-07T14:05:15;2.58;;;1.45;;
21733;SDS011;11029;47.820;10.534;2022-12-07T14:10:26;1.60;;;1.48;;
21733;SDS011;11029;47.820;10.534;2022-12-07T14:12:54;2.28;;;1.90;;
21733;SDS011;11029;47.820;10.534;2022-12-07T14:15:22;2.25;;;1.70;;
21733;SDS011;11029;47.820;10.534;2022-12-07T14:17:50;2.00;;;1.80;;
21733;SDS011;11029;47.820;10.534;2022-12-07T14:20:37;1.60;;;1.50;;
21733;SDS011;11029;47.820;10.534;2022-12-07T14:23:04;2.35;;;1.52;;
21733;SDS011;11029;47.820;10.534;2022-12-07T14:25:45;1.90;;;1.50;;
21733;SDS011;11029;47.820;10.534;2022-12-07T14:28:30;2.30;;;1.60;;
21733;SDS011;11029;47.820;10.534;2022-12-07T14:30:57;1.70;;;1.60;;
21733;SDS011;11029;47.820;10.534;2022-12-07T14:33:25;1.50;;;1.40;;
21733;SDS011;11029;47.820;10.534;2022-12-07T14:35:52;2.28;;;1.73;;
21733;SDS011;11029;47.820;10.534;2022-12-07T14:38:24;1.75;;;1.40;;
21733;SDS011;11029;47.820;10.534;2022-12-07T14:40:52;1.75;;;1.65;;
21733;SDS011;11029;47.820;10.534;2022-12-07T14:43:20;3.17;;;1.52;;
21733;SDS011;11029;47.820;10.534;2022-12-07T14:45:47;1.55;;;1.45;;
21733;SDS011;11029;47.820;10.534;2022-12-07T14:48:15;2.22;;;1.60;;
21733;SDS011;11029;47.820;10.534;2022-12-07T14:51:02;1.80;;;1.52;;
21733;SDS011;11029;47.820;10.534;2022-12-07T14:53:50;1.50;;;1.40;;
21733;SDS011;11029;47.820;10.534;2022-12-07T14:58:49;1.70;;;1.52;;
21733;SDS011;11029;47.820;10.534;2022-12-07T15:01:17;1.92;;;1.48;;
21733;SDS011;11029;47.820;10.534;2022-12-07T15:03:44;1.92;;;1.33;;
21733;SDS011;11029;47.820;10.534;2022-12-07T15:06:13;1.80;;;1.60;;
21733;SDS011;11029;47.820;10.534;2022-12-07T15:08:41;1.63;;;1.52;;
21733;SDS011;11029;47.820;10.534;2022-12-07T15:11:13;2.10;;;1.65;;
21733;SDS011;11029;47.820;10.534;2022-12-07T15:13:41;1.50;;;1.40;;
21733;SDS011;11029;47.820;10.534;2022-12-07T15:16:26;1.90;;;1.80;;
21733;SDS011;11029;47.820;10.534;2022-12-07T15:19:09;2.63;;;1.67;;
21733;SDS011;11029;47.820;10.534;2022-12-07T15:21:53;2.10;;;1.35;;
21733;SDS011;11029;47.820;10.534;2022-12-07T15:24:21;1.70;;;1.60;;
21733;SDS011;11029;47.820;10.534;2022-12-07T15:26:50;3.17;;;1.67;;
21733;SDS011;11029;47.820;10.534;2022-12-07T15:29:17;1.83;;;1.73;;
21733;SDS011;11029;47.820;10.534;2022-12-07T15:31:49;2.17;;;1.40;;
21733;SDS011;11029;47.820;10.534;2022-12-07T15:34:23;1.52;;;1.40;;
21733;SDS011;11029;47.820;10.534;2022-12-07T15:36:51;2.53;;;1.65;;
21733;SDS011;11029;47.820;10.534;2022-12-07T15:39:18;2.28;;;2.08;;
21733;SDS011;11029;47.820;10.534;2022-12-07T15:41:45;3.13;;;1.83;;
21733;SDS011;11029;47.820;10.534;2022-12-07T15:44:13;2.28;;;2.00;;
21733;SDS011;11029;47.820;10.534;2022-12-07T15:46:59;2.40;;;2.20;;
21733;SDS011;11029;47.820;10.534;2022-12-07T16:28:57;2.35;;;1.38;;
21733;SDS011;11029;47.820;10.534;2022-12-07T16:31:25;2.95;;;1.40;;
21733;SDS011;11029;47.820;10.534;2022-12-07T16:40:53;3.30;;;1.60;;
21733;SDS011;11029;47.820;10.534;2022-12-07T16:43:21;3.60;;;1.70;;
21733;SDS011;11029;47.820;10.534;2022-12-07T16:45:48;3.15;;;1.10;;
21733;SDS011;11029;47.820;10.534;2022-12-07T16:58:42;2.85;;;1.40;;
21733;SDS011;11029;47.820;10.534;2022-12-07T17:01:12;13.70;;;1.77;;
21733;SDS011;11029;47.820;10.534;2022-12-07T17:03:44;5.07;;;1.75;;
21733;SDS011;11029;47.820;10.534;2022-12-07T17:06:12;3.78;;;1.65;;
21733;SDS011;11029;47.820;10.534;2022-12-07T17:08:43;2.78;;;1.80;;
21733;SDS011;11029;47.820;10.534;2022-12-07T17:11:14;2.70;;;1.73;;
21733;SDS011;11029;47.820;10.534;2022-12-07T17:13:44;2.30;;;1.80;;
21733;SDS011;11029;47.820;10.534;2022-12-07T17:16:30;1.85;;;1.70;;
21733;SDS011;11029;47.820;10.534;2022-12-07T17:18:57;3.22;;;1.70;;
21733;SDS011;11029;47.820;10.534;2022-12-07T17:21:25;4.07;;;1.65;;
21733;SDS011;11029;47.820;10.534;2022-12-07T17:23:51;2.08;;;1.67;;
21733;SDS011;11029;47.820;10.534;2022-12-07T17:26:22;1.98;;;1.88;;
21733;SDS011;11029;47.820;10.534;2022-12-07T17:28:50;4.05;;;1.65;;
21733;SDS011;11029;47.820;10.534;2022-12-07T17:31:17;3.63;;;1.92;;
21733;SDS011;11029;47.820;10.534;2022-12-07T17:33:45;4.18;;;2.03;;
21733;SDS011;11029;47.820;10.534;2022-12-07T17:36:14;2.20;;;2.00;;
21733;SDS011;11029;47.820;10.534;2022-12-07T17:38:41;3.63;;;1.70;;
21733;SDS011;11029;47.820;10.534;2022-12-07T17:41:12;2.17;;;1.98;;
21733;SDS011;11029;47.820;10.534;2022-12-07T17:44:05;3.55;;;1.75;;
21733;SDS011;11029;47.820;10.534;2022-12-07T17:46:37;3.38;;;1.75;;
21733;SDS011;11029;47.820;10.534;2022-12-07T17:49:05;3.20;;;1.70;;
21733;SDS011;11029;47.820;10.534;2022-12-07T17:51:32;3.28;;;1.83;;
21733;SDS011;11029;47.820;10.534;2022-12-07T17:54:18;3.90;;;1.88;;
21733;SDS011;11029;47.820;10.534;2022-12-07T17:56:45;2.15;;;1.95;;
21733;SDS011;11029;47.820;10.534;2022-12-07T17:59:12;3.33;;;1.80;;
21733;SDS011;11029;47.820;10.534;2022-12-07T18:01:40;2.83;;;2.25;;
21733;SDS011;11029;47.820;10.534;2022-12-07T18:04:08;2.33;;;1.92;;
21733;SDS011;11029;47.820;10.534;2022-12-07T18:06:34;2.80;;;2.00;;
21733;SDS011;11029;47.820;10.534;2022-12-07T18:09:02;2.72;;;1.95;;
21733;SDS011;11029;47.820;10.534;2022-12-07T18:11:29;4.70;;;2.10;;
21733;SDS011;11029;47.820;10.534;2022-12-07T18:13:56;2.92;;;2.53;;
21733;SDS011;11029;47.820;10.534;2022-12-07T18:16:24;2.40;;;1.98;;
21733;SDS011;11029;47.820;10.534;2022-12-07T18:18:52;2.75;;;2.00;;
21733;SDS011;11029;47.820;10.534;2022-12-07T18:21:23;3.53;;;2.05;;
21733;SDS011;11029;47.820;10.534;2022-12-07T18:26:20;2.80;;;2.30;;
21733;SDS011;11029;47.820;10.534;2022-12-07T18:28:48;3.60;;;1.92;;
21733;SDS011;11029;47.820;10.534;2022-12-07T18:31:15;2.28;;;2.08;;
21733;SDS011;11029;47.820;10.534;2022-12-07T18:33:43;2.22;;;2.03;;
21733;SDS011;11029;47.820;10.534;2022-12-07T18:36:11;2.92;;;2.17;;
21733;SDS011;11029;47.820;10.534;2022-12-07T18:38:39;3.05;;;2.05;;
21733;SDS011;11029;47.820;10.534;2022-12-07T18:41:07;3.38;;;2.45;;
21733;SDS011;11029;47.820;10.534;2022-12-07T18:43:38;3.63;;;2.42;;
21733;SDS011;11029;47.820;10.534;2022-12-07T18:46:09;4.78;;;2.33;;
21733;SDS011;11029;47.820;10.534;2022-12-07T18:48:44;3.47;;;2.50;;
21733;SDS011;11029;47.820;10.534;2022-12-07T18:51:12;3.25;;;2.55;;
21733;SDS011;11029;47.820;10.534;2022-12-07T18:53:39;2.55;;;2.25;;
21733;SDS011;11029;47.820;10.534;2022-12-07T18:56:08;3.60;;;2.40;;
21733;SDS011;11029;47.820;10.534;2022-12-07T18:58:35;2.63;;;2.30;;
21733;SDS011;11029;47.820;10.534;2022-12-07T19:01:02;2.47;;;2.15;;
21733;SDS011;11029;47.820;10.534;2022-12-07T19:03:30;4.45;;;2.58;;
21733;SDS011;11029;47.820;10.534;2022-12-07T19:06:04;3.30;;;2.40;;
21733;SDS011;11029;47.820;10.534;2022-12-07T19:08:32;2.83;;;2.15;;
21733;SDS011;11029;47.820;10.534;2022-12-07T19:11:00;4.32;;;2.63;;
21733;SDS011;11029;47.820;10.534;2022-12-07T19:13:49;4.05;;;2.33;;
21733;SDS011;11029;47.820;10.534;2022-12-07T19:16:16;2.95;;;2.38;;
21733;SDS011;11029;47.820;10.534;2022-12-07T19:18:43;2.92;;;2.38;;
21733;SDS011;11029;47.820;10.534;2022-12-07T19:21:16;2.90;;;2.10;;
21733;SDS011;11029;47.820;10.534;2022-12-07T19:23:43;3.95;;;2.30;;
21733;SDS011;11029;47.820;10.534;2022-12-07T19:26:10;3.58;;;2.20;;
21733;SDS011;11029;47.820;10.534;2022-12-07T19:28:37;2.78;;;2.08;;
21733;SDS011;11029;47.820;10.534;2022-12-07T19:31:04;2.47;;;2.28;;
21733;SDS011;11029;47.820;10.534;2022-12-07T19:33:37;2.38;;;2.17;;
21733;SDS011;11029;47.820;10.534;2022-12-07T19:36:04;2.28;;;2.08;;
21733;SDS011;11029;47.820;10.534;2022-12-07T19:38:32;2.97;;;2.22;;
21733;SDS011;11029;47.820;10.534;2022-12-07T19:41:06;2.13;;;1.98;;
21733;SDS011;11029;47.820;10.534;2022-12-07T19:43:33;2.75;;;2.17;;
21733;SDS011;11029;47.820;10.534;2022-12-07T19:46:04;3.17;;;2.35;;
21733;SDS011;11029;47.820;10.534;2022-12-07T19:48:31;2.45;;;2.20;;
21733;SDS011;11029;47.820;10.534;2022-12-07T19:51:02;2.60;;;2.35;;
21733;SDS011;11029;47.820;10.534;2022-12-07T19:53:32;2.50;;;2.03;;
21733;SDS011;11029;47.820;10.534;2022-12-07T19:55:59;5.00;;;2.55;;
21733;SDS011;11029;47.820;10.534;2022-12-07T19:58:26;3.38;;;2.00;;
21733;SDS011;11029;47.820;10.534;2022-12-07T20:00:53;2.88;;;2.15;;
21733;SDS011;11029;47.820;10.534;2022-12-07T20:03:20;3.33;;;2.50;;
21733;SDS011;11029;47.820;10.534;2022-12-07T20:05:46;3.38;;;2.50;;
21733;SDS011;11029;47.820;10.534;2022-12-07T20:08:13;2.55;;;2.35;;
21733;SDS011;11029;47.820;10.534;2022-12-07T20:10:40;4.75;;;2.20;;
21733;SDS011;11029;47.820;10.534;2022-12-07T20:13:07;3.08;;;2.38;;
21733;SDS011;11029;47.820;10.534;2022-12-07T20:15:53;2.42;;;2.17;;
21733;SDS011;11029;47.820;10.534;2022-12-07T20:18:40;4.32;;;2.55;;
21733;SDS011;11029;47.820;10.534;2022-12-07T20:21:07;2.65;;;2.45;;
21733;SDS011;11029;47.820;10.534;2022-12-07T20:23:34;2.60;;;2.03;;
21733;SDS011;11029;47.820;10.534;2022-12-07T20:26:02;2.30;;;2.03;;
21733;SDS011;11029;47.820;10.534;2022-12-07T20:31:00;3.53;;;2.35;;
21733;SDS011;11029;47.820;10.534;2022-12-07T20:33:27;3.97;;;2.22;;
21733;SDS011;11029;47.820;10.534;2022-12-07T20:35:59;5.93;;;2.35;;
21733;SDS011;11029;47.820;10.534;2022-12-07T20:38:27;2.35;;;2.00;;
21733;SDS011;11029;47.820;10.534;2022-12-07T20:40:58;2.42;;;2.22;;
21733;SDS011;11029;47.820;10.534;2022-12-07T20:43:27;3.15;;;2.42;;
21733;SDS011;11029;47.820;10.534;2022-12-07T20:45:54;2.92;;;2.00;;
21733;SDS011;11029;47.820;10.534;2022-12-07T20:48:21;2.40;;;2.20;;
21733;SDS011;11029;47.820;10.534;2022-12-07T20:50:49;3.55;;;2.35;;
21733;SDS011;11029;47.820;10.534;2022-12-07T20:53:16;4.15;;;2.50;;
21733;SDS011;11029;47.820;10.534;2022-12-07T20:55:43;3.03;;;2.20;;
21733;SDS011;11029;47.820;10.534;2022-12-07T20:58:10;3.92;;;2.60;;
21733;SDS011;11029;47.820;10.534;2022-12-07T21:00:37;2.45;;;2.17;;
21733;SDS011;11029;47.820;10.534;2022-12-07T21:03:03;2.80;;;2.40;;
21733;SDS011;11029;47.820;10.534;2022-12-07T21:05:31;3.53;;;2.33;;
21733;SDS011;11029;47.820;10.534;2022-12-07T21:07:58;2.72;;;2.38;;
21733;SDS011;11029;47.820;10.534;2022-12-07T21:10:24;2.92;;;2.42;;
21733;SDS011;11029;47.820;10.534;2022-12-07T21:12:51;5.72;;;2.65;;
21733;SDS011;11029;47.820;10.534;2022-12-07T21:15:21;2.50;;;2.25;;
21733;SDS011;11029;47.820;10.534;2022-12-07T21:17:47;2.92;;;2.40;;
21733;SDS011;11029;47.820;10.534;2022-12-07T21:20:14;2.88;;;2.33;;
21733;SDS011;11029;47.820;10.534;2022-12-07T21:22:41;2.90;;;2.60;;
21733;SDS011;11029;47.820;10.534;2022-12-07T21:25:08;2.28;;;2.00;;
21733;SDS011;11029;47.820;10.534;2022-12-07T21:27:35;2.78;;;2.40;;
21733;SDS011;11029;47.820;10.534;2022-12-07T21:30:02;4.45;;;2.05;;
21733;SDS011;11029;47.820;10.534;2022-12-07T21:32:29;3.33;;;2.20;;
21733;SDS011;11029;47.820;10.534;2022-12-07T21:34:56;4.80;;;2.33;;
21733;SDS011;11029;47.820;10.534;2022-12-07T21:37:23;2.92;;;2.28;;
21733;SDS011;11029;47.820;10.534;2022-12-07T21:39:49;2.95;;;2.38;;
21733;SDS011;11029;47.820;10.534;2022-12-07T21:42:16;3.15;;;2.38;;
21733;SDS011;11029;47.820;10.534;2022-12-07T21:44:43;8.07;;;2.50;;
21733;SDS011;11029;47.820;10.534;2022-12-07T21:47:10;4.78;;;2.55;;
21733;SDS011;11029;47.820;10.534;2022-12-07T21:49:36;3.45;;;2.40;;
21733;SDS011;11029;47.820;10.534;2022-12-07T21:52:03;9.65;;;2.67;;
21733;SDS011;11029;47.820;10.534;2022-12-07T21:54:30;7.00;;;2.97;;
21733;SDS011;11029;47.820;10.534;2022-12-07T21:56:57;6.97;;;2.83;;
21733;SDS011;11029;47.820;10.534;2022-12-07T21:59:24;7.28;;;2.88;;
21733;SDS011;11029;47.820;10.534;2022-12-07T22:01:51;8.27;;;2.67;;
21733;SDS011;11029;47.820;10.534;2022-12-07T22:04:19;7.80;;;2.78;;
21733;SDS011;11029;47.820;10.534;2022-12-07T22:06:47;8.20;;;2.30;;
21733;SDS011;11029;47.820;10.534;2022-12-07T22:09:15;6.28;;;2.65;;
21733;SDS011;11029;47.820;10.534;2022-12-07T22:11:44;10.07;;;3.00;;
21733;SDS011;11029;47.820;10.534;2022-12-07T22:14:11;7.20;;;2.88;;
21733;SDS011;11029;47.820;10.534;2022-12-07T22:16:57;12.63;;;2.83;;
21733;SDS011;11029;47.820;10.534;2022-12-07T22:19:24;6.88;;;3.00;;
21733;SDS011;11029;47.820;10.534;2022-12-07T22:21:51;10.57;;;3.25;;
21733;SDS011;11029;47.820;10.534;2022-12-07T22:24:18;6.50;;;2.90;;
21733;SDS011;11029;47.820;10.534;2022-12-07T22:26:44;10.90;;;3.28;;
21733;SDS011;11029;47.820;10.534;2022-12-07T22:29:11;7.85;;;2.90;;
21733;SDS011;11029;47.820;10.534;2022-12-07T22:31:38;6.82;;;2.90;;
21733;SDS011;11029;47.820;10.534;2022-12-07T22:34:06;8.55;;;2.50;;
21733;SDS011;11029;47.820;10.534;2022-12-07T22:36:39;4.90;;;2.40;;
21733;SDS011;11029;47.820;10.534;2022-12-07T22:39:05;7.63;;;2.70;;
21733;SDS011;11029;47.820;10.534;2022-12-07T22:41:33;3.83;;;2.13;;
21733;SDS011;11029;47.820;10.534;2022-12-07T22:44:00;3.88;;;2.60;;
21733;SDS011;11029;47.820;10.534;2022-12-07T22:46:27;5.50;;;2.10;;
21733;SDS011;11029;47.820;10.534;2022-12-07T22:48:54;7.05;;;2.50;;
21733;SDS011;11029;47.820;10.534;2022-12-07T22:51:24;4.82;;;2.35;;
21733;SDS011;11029;47.820;10.534;2022-12-07T22:53:53;7.25;;;2.50;;
21733;SDS011;11029;47.820;10.534;2022-12-07T22:56:20;4.25;;;2.63;;
21733;SDS011;11029;47.820;10.534;2022-12-07T22:58:48;2.50;;;2.20;;
21733;SDS011;11029;47.820;10.534;2022-12-07T23:01:15;3.53;;;2.45;;
21733;SDS011;11029;47.820;10.534;2022-12-07T23:03:43;3.67;;;2.17;;
21733;SDS011;11029;47.820;10.534;2022-12-07T23:06:21;2.90;;;2.30;;
21733;SDS011;11029;47.820;10.534;2022-12-07T23:08:50;10.13;;;2.40;;
21733;SDS011;11029;47.820;10.534;2022-12-07T23:11:18;11.20;;;3.53;;
21733;SDS011;11029;47.820;10.534;2022-12-07T23:14:09;9.00;;;2.60;;
21733;SDS011;11029;47.820;10.534;2022-12-07T23:16:38;6.97;;;2.47;;
21733;SDS011;11029;47.820;10.534;2022-12-07T23:19:05;4.10;;;2.30;;
21733;SDS011;11029;47.820;10.534;2022-12-07T23:21:32;5.30;;;2.40;;
21733;SDS011;11029;47.820;10.534;2022-12-07T23:23:59;3.75;;;2.05;;
21733;SDS011;11029;47.820;10.534;2022-12-07T23:26:26;2.70;;;2.30;;
21733;SDS011;11029;47.820;10.534;2022-12-07T23:28:53;2.90;;;2.38;;
21733;SDS011;11029;47.820;10.534;2022-12-07T23:31:20;3.65;;;2.08;;
21733;SDS011;11029;47.820;10.534;2022-12-07T23:33:47;4.10;;;2.45;;
21733;SDS011;11029;47.820;10.534;2022-12-07T23:36:18;5.00;;;2.10;;
21733;SDS011;11029;47.820;10.534;2022-12-07T23:38:47;4.43;;;2.40;;
21733;SDS011;11029;47.820;10.534;2022-12-07T23:41:16;3.85;;;2.17;;
21733;SDS011;11029;47.820;10.534;2022-12-07T23:43:44;2.60;;;2.22;;
21733;SDS011;11029;47.820;10.534;2022-12-07T23:46:13;2.75;;;2.20;;
21733;SDS011;11029;47.820;10.534;2022-12-07T23:51:11;6.82;;;2.10;;
21733;SDS011;11029;47.820;10.534;2022-12-07T23:53:41;4.93;;;2.25;;
21733;SDS011;11029;47.820;10.534;2022-12-07T23:56:12;3.50;;;2.10;;
21733;SDS011;11029;47.820;10.534;2022-12-07T23:58:40;2.30;;;1.90;;
